Friday, January 19, 2018, 4:01 AM GMT
Back to Local

CYPD, Port Hawkesbury

Location: , , Canada Lat: 45.667
Local Time: 4:01 AM GMT ( 4:01 GMT) Lon: -61.383
Time Zone: GMT Elev: 374 ft

Show me the last for .
Show Decoded

2018-01-19 03:26 METAR CYPD 190326Z AUTO 33006KT 300V010 9SM OVC018 M05/M07 A2974 RMK SLP078 =
2018-01-19 03:13 METAR CYPD 190313Z AUTO 32007KT 290V350 9SM -SN OVC016 M05/M07 A2974 RMK SLP078
                 =
2018-01-19 03:00 METAR CYPD 190300Z AUTO 33005KT 300V360 9SM OVC016 M04/M07 A2974 RMK SLP079 =
2018-01-19 02:00 METAR CYPD 190200Z AUTO 32006KT 290V360 9SM OVC022 M04/M06 A2972 RMK SLP072 =
2018-01-19 01:00 METAR CYPD 190100Z AUTO 32008KT 9SM FEW005 SCT013 OVC020 M03/M05 A2974 RMK
                 SLP078 =
2018-01-19 00:57 METAR CYPD 190057Z AUTO 31007KT 9SM SCT005 SCT013 OVC020 M03/M05 A2974 RMK
                 SLP078 =
2018-01-19 00:51 METAR CYPD 190051Z AUTO 30009KT 9SM -SN FEW005 SCT009 BKN013 OVC020 M03/M04
                 A2974 RMK SLP077 =
2018-01-19 00:38 METAR CYPD 190038Z AUTO 30004KT 260V320 8SM -SN BKN009 BKN013 OVC019 M03/M04
                 A2973 RMK SLP076 =
2018-01-19 00:37 METAR CYPD 190037Z AUTO 30003KT 260V320 9SM -SN SCT009 OVC013 M03/M04 A2973 RMK
                 SLP076 =
2018-01-19 00:33 METAR CYPD 190033Z AUTO 27003KT 260V330 9SM -SN BKN009 BKN013 OVC018 M03/M04
                 A2973 RMK SLP075 =
2018-01-19 00:11 METAR CYPD 190011Z AUTO 31003KT 280V350 9SM BKN005 OVC011 M03/M04 A2973 RMK
                 SLP074 =
2018-01-19 00:10 METAR CYPD 190010Z AUTO 30004KT 280V350 9SM SCT005 OVC011 M03/M04 A2973 RMK
                 SLP074 =
2018-01-19 00:00 METAR CYPD 190000Z AUTO 30006KT 9SM BKN005 OVC011 M03/M04 A2973 RMK SLP074 =
2018-01-18 23:42 METAR CYPD 182342Z AUTO 29004KT 6SM BR OVC003 M03/M04 A2972 RMK SLP070 =
2018-01-18 23:18 METAR CYPD 182318Z AUTO 31004KT 270V040 3SM BR OVC003 M04/M04 A2971 RMK SLP069 =
2018-01-18 23:01 METAR CYPD 182301Z AUTO 32004KT 290V350 2 1/2SM BR OVC003 M04/M04 A2972 RMK
                 SLP070 =
2018-01-18 23:00 METAR CYPD 182300Z AUTO 32004KT 290V350 3SM BR OVC003 M04/M04 A2971 RMK SLP069 =
2018-01-18 22:55 METAR CYPD 182255Z AUTO 32006KT 280V350 5SM BR OVC003 M04/M04 A2971 RMK SLP069 =
2018-01-18 22:47 METAR CYPD 182247Z AUTO 30005KT 280V350 6SM BR OVC003 M04/M04 A2972 RMK SLP070 =
2018-01-18 22:41 METAR CYPD 182241Z AUTO 32005KT 290V350 3SM BR OVC003 M04/M04 A2972 RMK SLP070 =
2018-01-18 22:06 METAR CYPD 182206Z AUTO 33009KT 2 1/2SM BR OVC003 M04/M04 A2971 RMK SLP068 =
2018-01-18 22:00 METAR CYPD 182200Z AUTO 32009KT 290V010 4SM BR OVC003 M04/M04 A2971 RMK SLP068 =
2018-01-18 21:56 METAR CYPD 182156Z AUTO 33005KT 290V010 5SM BR OVC003 M04/M04 A2972 RMK SLP070 =
2018-01-18 21:00 METAR CYPD 182100Z AUTO 33004KT 280V340 9SM OVC005 M03/M04 A2969 RMK SLP063 =
2018-01-18 20:00 METAR CYPD 182000Z AUTO 31004KT 280V350 9SM OVC005 M03/M03 A2972 RMK SLP070 =
2018-01-18 19:00 METAR CYPD 181900Z AUTO 32007KT 280V350 9SM OVC005 M03/M03 A2972 RMK SLP070 =
2018-01-18 18:00 METAR CYPD 181800Z AUTO 31008KT 9SM OVC005 M02/M04 A2972 RMK SLP070 =
2018-01-18 17:00 METAR CYPD 181700Z AUTO 31009G15KT 9SM BKN003 OVC015 M02/M03 A2972 RMK SLP073 =
2018-01-18 16:22 METAR CYPD 181622Z AUTO 30012G17KT 9SM OVC003 M02/M03 A2974 RMK SLP079 =
2018-01-18 16:17 METAR CYPD 181617Z AUTO 30012G17KT 6SM -SN OVC003 M02/M03 A2974 RMK SLP079 =
2018-01-18 16:00 METAR CYPD 181600Z AUTO 29011G16KT 4SM -SN OVC003 M02/M03 A2975 RMK SLP081 =
2018-01-18 15:54 METAR CYPD 181554Z AUTO 29010G18KT 4SM -SN OVC003 M02/M03 A2975 RMK SLP081 =
2018-01-18 15:43 METAR CYPD 181543Z AUTO 29011G18KT 3SM BR OVC003 M02/M03 A2976 RMK SLP084 =
2018-01-18 15:33 METAR CYPD 181533Z AUTO 29012G20KT 2 1/4SM BR OVC003 M02/M03 A2976 RMK SLP085 =
2018-01-18 15:32 METAR CYPD 181532Z AUTO 29011G20KT 3SM BR OVC003 M02/M03 A2976 RMK SLP085 =
2018-01-18 15:22 METAR CYPD 181522Z AUTO 29010G19KT 6SM BR OVC003 M02/M03 A2977 RMK SLP087 =
2018-01-18 15:00 METAR CYPD 181500Z AUTO 29010G16KT 4SM BR OVC003 M02/M03 A2976 RMK SLP084 =
2018-01-18 14:19 METAR CYPD 181419Z AUTO 31009G15KT 5SM BR OVC003 M02/M03 A2976 RMK SLP086 =
2018-01-18 14:10 METAR CYPD 181410Z AUTO 30013G20KT 6SM BR OVC003 M02/M03 A2976 RMK SLP085 =
2018-01-18 14:00 METAR CYPD 181400Z AUTO 31010G17KT 3SM BR OVC003 M02/M03 A2976 RMK SLP084 =
2018-01-18 13:36 METAR CYPD 181336Z AUTO 30009KT 5SM BR OVC003 M02/M03 A2976 RMK SLP085 =
2018-01-18 13:10 METAR CYPD 181310Z AUTO 31009G16KT 6SM BR OVC003 M02/M03 A2975 RMK SLP083 =
2018-01-18 13:00 METAR CYPD 181300Z AUTO 31011G18KT 3SM BR OVC003 M02/M03 A2975 RMK SLP083 =
2018-01-18 12:54 METAR CYPD 181254Z AUTO 31012G17KT 270V340 2 1/4SM BR OVC003 M02/M03 A2975 RMK
                 SLP081 =
2018-01-18 12:34 METAR CYPD 181234Z AUTO 31010KT 3SM BR OVC006 M02/M03 A2974 RMK SLP078 =
2018-01-18 12:19 METAR CYPD 181219Z AUTO 30008KT 2 1/4SM BR OVC006 M02/M03 A2974 RMK SLP077 =
2018-01-18 12:00 METAR CYPD 181200Z AUTO 30008KT 4SM BR OVC006 M02/M02 A2973 RMK ICG PAST HR
                 SLP075 =
2018-01-18 11:50 METAR CYPD 181150Z AUTO 31007KT 4SM BR OVC004 M02/M03 A2972 RMK ICG PAST HR
                 SLP072 =
2018-01-18 11:41 METAR CYPD 181141Z AUTO 31005KT 3SM BR OVC004 M02/M03 A2972 RMK ICG INTMT SLP071
                 =
2018-01-18 11:31 METAR CYPD 181131Z AUTO 30006G15KT 1 3/4SM BR BKN002 OVC006 M02/M03 A2972 RMK
                 ICG SLP071 =
2018-01-18 11:25 METAR CYPD 181125Z AUTO 31010G15KT 1 1/2SM -FZRA BR OVC002 M02/M03 A2972 RMK ICG
                 SLP072 =
2018-01-18 11:17 METAR CYPD 181117Z AUTO 30011KT 1 1/2SM -FZRA -SN BKN002 OVC016 M02/M03 A2972
                 RMK ICG SLP070 =
2018-01-18 11:09 METAR CYPD 181109Z AUTO 30009KT 1 1/4SM -SN BKN002 OVC016 M02/M02 A2972 RMK ICG
                 SLP072 =
2018-01-18 11:03 METAR CYPD 181103Z AUTO 30010KT 1 1/4SM -SN FEW002 OVC016 M02/M02 A2972 RMK ICG
                 SLP073 =
2018-01-18 11:00 METAR CYPD 181100Z AUTO 30008KT 1 1/2SM -SN FEW004 OVC016 M02/M02 A2972 RMK ICG
                 PAST HR SLP073 =
2018-01-18 10:56 METAR CYPD 181056Z AUTO 30004KT 2 1/2SM BR FEW004 OVC018 M02/M03 A2972 RMK ICG
                 PAST HR SLP070 =
2018-01-18 10:44 METAR CYPD 181044Z AUTO VRB02KT 3SM BR SCT004 OVC018 M02/M02 A2972 RMK ICG PAST
                 HR SLP071 =
2018-01-18 10:43 METAR CYPD 181043Z AUTO VRB02KT 3SM BR BKN004 OVC018 M02/M02 A2972 RMK ICG PAST
                 HR SLP071 =
2018-01-18 10:42 METAR CYPD 181042Z AUTO 00000KT 2 1/2SM BR BKN004 OVC018 M02/M02 A2972 RMK ICG
                 PAST HR SLP071 =
2018-01-18 10:24 METAR CYPD 181024Z AUTO 34005KT 290V010 1 1/2SM BR OVC004 M02/M02 A2972 RMK ICG
                 SLP073 =
2018-01-18 10:06 METAR CYPD 181006Z AUTO 34005KT 300V360 1SM -FZRA BR OVC004 M02/M03 A2972 RMK
                 ICG SLP070 =
2018-01-18 10:00 METAR CYPD 181000Z AUTO 33006KT 290V350 1SM -FZRA -SN OVC004 M02/M03 A2972 RMK
                 ICG SLP071 =
2018-01-18 09:55 METAR CYPD 180955Z AUTO 31007KT 1 1/4SM -SN OVC002 M02/M03 A2972 RMK ICG SLP073
                 =
2018-01-18 09:40 METAR CYPD 180940Z AUTO 31007KT 1 1/4SM BR OVC002 M02/M03 A2972 RMK ICG PRESRR
                 SLP070
2018-01-18 09:35 METAR CYPD 180935Z AUTO 32006KT 300V360 1 1/4SM BR OVC002 M02/M03 A2971 RMK ICG
                 PAST HR SLP068 =
2018-01-18 09:00 METAR CYPD 180900Z AUTO 01004KT 310V050 1SM -FZRA BR OVC002 M02/M03 A2972 RMK
                 ICG SLP070 =
2018-01-18 08:14 METAR CYPD 180814Z AUTO 04008G15KT 1 1/2SM -FZRA BR OVC002 M02/M03 A2972 RMK ICG
                 SLP073 =
2018-01-18 08:08 METAR CYPD 180808Z AUTO 04009G15KT 1 3/4SM -FZRA -SN OVC002 M02/M03 A2972 RMK
                 ICG SLP073 =
2018-01-18 08:04 METAR CYPD 180804Z AUTO 04011KT 2SM -SN OVC002 M02/M03 A2972 RMK ICG SLP073 =
2018-01-18 08:00 METAR CYPD 180800Z AUTO 05010G15KT 2 1/4SM BR OVC002 M02/M03 A2972 RMK ICG
                 SLP072 =
2018-01-18 07:50 METAR CYPD 180750Z AUTO 04011KT 2 1/4SM BR OVC002 M02/M03 A2973 RMK ICG SLP075 =
2018-01-18 07:34 METAR CYPD 180734Z AUTO 06010G16KT 2 1/4SM -FZRA BR OVC004 M02/M03 A2973 RMK ICG
                 PRESFR SLP075 =
2018-01-18 07:28 METAR CYPD 180728Z AUTO 06013KT 2 1/2SM -FZRA -SN OVC004 M02/M03 A2973 RMK ICG
                 PRESFR SLP076 =
2018-01-18 07:27 METAR CYPD 180727Z AUTO 06013KT 2 1/2SM -SN OVC004 M02/M03 A2974 RMK ICG PRESFR
                 SLP077 =
2018-01-18 07:25 METAR CYPD 180725Z AUTO 06014KT 3SM -SN OVC004 M02/M03 A2974 RMK ICG PRESFR
                 SLP078 =
2018-01-18 07:10 METAR CYPD 180710Z AUTO 06011G19KT 3SM -FZRA BR BKN004 BKN020 M02/M03 A2976 RMK
                 ICG PRESFR SLP086 =
2018-01-18 07:03 METAR CYPD 180703Z AUTO 06011G16KT 4SM BR BKN004 BKN010 OVC020 M03/M03 A2977 RMK
                 ICG SLP090 =
2018-01-18 07:00 METAR CYPD 180700Z AUTO 06011G17KT 4SM BR SCT004 BKN010 OVC020 M03/M03 A2977 RMK
                 ICG PRESFR SLP090 =
2018-01-18 06:55 METAR CYPD 180655Z AUTO 05010G17KT 4SM BR SCT004 SCT010 OVC022 M03/M03 A2978 RMK
                 ICG PRESFR SLP093 =
2018-01-18 06:24 METAR CYPD 180624Z AUTO 05014G19KT 3SM -FZRA BR BKN022 M03/M04 A2980 RMK ICG
                 PRESFR SLP099 =
2018-01-18 06:19 METAR CYPD 180619Z AUTO 05011G19KT 2 1/2SM -FZRA BR OVC022 M03/M04 A2981 RMK ICG
                 SLP103 =
2018-01-18 06:11 METAR CYPD 180611Z AUTO 06011G16KT 1 1/2SM -FZRA -SN OVC020 M03/M04 A2982 RMK
                 ICG PRESFR SLP106 =
2018-01-18 06:07 METAR CYPD 180607Z AUTO 05010G16KT 1 1/2SM -SN OVC018 M03/M03 A2982 RMK ICG
                 PRESFR SLP107 =
2018-01-18 06:00 METAR CYPD 180600Z AUTO 06009KT 1 1/2SM -SN OVC018 M03/M04 A2983 RMK PRESFR PCPN
                 0.8MM PAST HR SLP109 =
2018-01-18 05:00 METAR CYPD 180500Z AUTO 06013KT 3/4SM -SN VV014 M03/M03 A2987 RMK PRESFR SLP124
                 =

Support USWX by starting your Amazon purchase here.